sensor_id;sensor_type;location;lat;lon;timestamp;temperature;humidity
33328;DHT22;19692;52.998;9.116;2023-01-09T00:01:41;5.50;99.90
33328;DHT22;19692;52.998;9.116;2023-01-09T00:04:09;5.60;99.90
33328;DHT22;19692;52.998;9.116;2023-01-09T00:06:35;5.60;99.90
33328;DHT22;19692;52.998;9.116;2023-01-09T00:09:01;5.60;99.90
33328;DHT22;19692;52.998;9.116;2023-01-09T00:11:27;5.60;99.90
33328;DHT22;19692;52.998;9.116;2023-01-09T00:13:53;5.60;99.90
33328;DHT22;19692;52.998;9.116;2023-01-09T00:16:18;5.60;99.90
33328;DHT22;19692;52.998;9.116;2023-01-09T00:18:45;5.60;99.90
33328;DHT22;19692;52.998;9.116;2023-01-09T00:21:11;5.60;99.90
33328;DHT22;19692;52.998;9.116;2023-01-09T00:23:38;5.60;99.90
33328;DHT22;19692;52.998;9.116;2023-01-09T00:26:06;5.60;99.90
33328;DHT22;19692;52.998;9.116;2023-01-09T00:28:36;5.60;99.90
33328;DHT22;19692;52.998;9.116;2023-01-09T00:31:03;5.60;99.90
33328;DHT22;19692;52.998;9.116;2023-01-09T00:34:04;5.60;99.90
33328;DHT22;19692;52.998;9.116;2023-01-09T00:36:31;5.50;99.90
33328;DHT22;19692;52.998;9.116;2023-01-09T00:38:57;5.40;99.90
33328;DHT22;19692;52.998;9.116;2023-01-09T00:41:39;5.40;99.90
33328;DHT22;19692;52.998;9.116;2023-01-09T00:44:55;5.30;99.90
33328;DHT22;19692;52.998;9.116;2023-01-09T00:47:00;5.30;99.90
33328;DHT22;19692;52.998;9.116;2023-01-09T00:49:31;5.30;99.90
33328;DHT22;19692;52.998;9.116;2023-01-09T00:51:59;5.30;99.90
33328;DHT22;19692;52.998;9.116;2023-01-09T00:54:26;5.30;99.90
33328;DHT22;19692;52.998;9.116;2023-01-09T00:56:53;5.30;99.90
33328;DHT22;19692;52.998;9.116;2023-01-09T00:59:19;5.30;99.90
33328;DHT22;19692;52.998;9.116;2023-01-09T01:01:45;5.30;99.90
33328;DHT22;19692;52.998;9.116;2023-01-09T01:04:11;5.30;99.90
33328;DHT22;19692;52.998;9.116;2023-01-09T01:06:55;5.40;99.90
33328;DHT22;19692;52.998;9.116;2023-01-09T01:09:39;5.40;99.90
33328;DHT22;19692;52.998;9.116;2023-01-09T01:12:05;5.40;99.90
33328;DHT22;19692;52.998;9.116;2023-01-09T01:14:36;5.40;99.90
33328;DHT22;19692;52.998;9.116;2023-01-09T01:17:03;5.40;99.90
33328;DHT22;19692;52.998;9.116;2023-01-09T01:19:33;5.50;99.90
33328;DHT22;19692;52.998;9.116;2023-01-09T01:22:00;5.50;99.90
33328;DHT22;19692;52.998;9.116;2023-01-09T01:24:26;5.50;99.90
33328;DHT22;19692;52.998;9.116;2023-01-09T01:26:51;5.50;99.90
33328;DHT22;19692;52.998;9.116;2023-01-09T01:29:17;5.60;99.90
33328;DHT22;19692;52.998;9.116;2023-01-09T01:31:43;5.70;99.90
33328;DHT22;19692;52.998;9.116;2023-01-09T01:34:09;5.60;99.90
33328;DHT22;19692;52.998;9.116;2023-01-09T01:36:34;5.70;99.90
33328;DHT22;19692;52.998;9.116;2023-01-09T01:39:00;5.70;99.90
33328;DHT22;19692;52.998;9.116;2023-01-09T01:41:26;5.80;99.90
33328;DHT22;19692;52.998;9.116;2023-01-09T01:44:00;5.80;99.90
33328;DHT22;19692;52.998;9.116;2023-01-09T01:46:29;5.80;99.90
33328;DHT22;19692;52.998;9.116;2023-01-09T01:49:13;5.90;99.90
33328;DHT22;19692;52.998;9.116;2023-01-09T01:51:43;5.90;99.90
33328;DHT22;19692;52.998;9.116;2023-01-09T01:54:18;5.90;99.90
33328;DHT22;19692;52.998;9.116;2023-01-09T01:56:56;5.90;99.90
33328;DHT22;19692;52.998;9.116;2023-01-09T01:59:39;6.00;99.90
33328;DHT22;19692;52.998;9.116;2023-01-09T02:02:09;6.00;99.90
33328;DHT22;19692;52.998;9.116;2023-01-09T02:04:36;6.00;99.90
33328;DHT22;19692;52.998;9.116;2023-01-09T02:07:07;6.00;99.90
33328;DHT22;19692;52.998;9.116;2023-01-09T02:09:35;6.10;99.90
33328;DHT22;19692;52.998;9.116;2023-01-09T02:12:12;6.00;99.90
33328;DHT22;19692;52.998;9.116;2023-01-09T02:14:40;6.00;99.90
33328;DHT22;19692;52.998;9.116;2023-01-09T02:17:16;6.00;99.90
33328;DHT22;19692;52.998;9.116;2023-01-09T02:23:11;6.00;99.90
33328;DHT22;19692;52.998;9.116;2023-01-09T02:26:25;6.00;99.90
33328;DHT22;19692;52.998;9.116;2023-01-09T02:32:26;6.00;99.90
33328;DHT22;19692;52.998;9.116;2023-01-09T02:35:30;6.00;99.90
33328;DHT22;19692;52.998;9.116;2023-01-09T02:41:12;6.10;99.90
33328;DHT22;19692;52.998;9.116;2023-01-09T02:43:41;6.10;99.90
33328;DHT22;19692;52.998;9.116;2023-01-09T02:46:17;6.10;99.90
33328;DHT22;19692;52.998;9.116;2023-01-09T02:48:44;6.10;99.90
33328;DHT22;19692;52.998;9.116;2023-01-09T02:51:20;6.10;99.90
33328;DHT22;19692;52.998;9.116;2023-01-09T02:54:49;6.10;99.90
33328;DHT22;19692;52.998;9.116;2023-01-09T02:57:30;6.10;99.90
33328;DHT22;19692;52.998;9.116;2023-01-09T03:00:14;6.20;99.90
33328;DHT22;19692;52.998;9.116;2023-01-09T03:02:52;6.20;99.90
33328;DHT22;19692;52.998;9.116;2023-01-09T03:05:31;6.20;99.90
33328;DHT22;19692;52.998;9.116;2023-01-09T03:08:09;6.20;99.90
33328;DHT22;19692;52.998;9.116;2023-01-09T03:13:16;6.20;99.90
33328;DHT22;19692;52.998;9.116;2023-01-09T03:15:44;6.20;99.90
33328;DHT22;19692;52.998;9.116;2023-01-09T03:18:13;6.20;99.90
33328;DHT22;19692;52.998;9.116;2023-01-09T03:20:41;6.20;99.90
33328;DHT22;19692;52.998;9.116;2023-01-09T03:23:08;6.20;99.90
33328;DHT22;19692;52.998;9.116;2023-01-09T03:25:34;6.20;99.90
33328;DHT22;19692;52.998;9.116;2023-01-09T03:28:02;6.20;99.90
33328;DHT22;19692;52.998;9.116;2023-01-09T03:30:31;6.20;99.90
33328;DHT22;19692;52.998;9.116;2023-01-09T03:32:58;6.20;99.90
33328;DHT22;19692;52.998;9.116;2023-01-09T03:35:24;6.20;99.90
33328;DHT22;19692;52.998;9.116;2023-01-09T03:37:50;6.20;99.90
33328;DHT22;19692;52.998;9.116;2023-01-09T03:40:19;6.20;99.90
33328;DHT22;19692;52.998;9.116;2023-01-09T03:42:46;6.20;99.90
33328;DHT22;19692;52.998;9.116;2023-01-09T03:45:12;6.30;99.90
33328;DHT22;19692;52.998;9.116;2023-01-09T03:47:37;6.30;99.90
33328;DHT22;19692;52.998;9.116;2023-01-09T03:50:04;6.40;99.90
33328;DHT22;19692;52.998;9.116;2023-01-09T03:52:30;6.50;99.90
33328;DHT22;19692;52.998;9.116;2023-01-09T03:54:56;6.50;99.90
33328;DHT22;19692;52.998;9.116;2023-01-09T03:57:22;6.60;99.90
33328;DHT22;19692;52.998;9.116;2023-01-09T03:59:50;6.60;99.90
33328;DHT22;19692;52.998;9.116;2023-01-09T04:02:16;6.70;99.90
33328;DHT22;19692;52.998;9.116;2023-01-09T04:04:42;6.70;99.90
33328;DHT22;19692;52.998;9.116;2023-01-09T04:07:08;6.70;99.90
33328;DHT22;19692;52.998;9.116;2023-01-09T04:09:34;6.80;99.90
33328;DHT22;19692;52.998;9.116;2023-01-09T04:11:59;6.70;99.90
33328;DHT22;19692;52.998;9.116;2023-01-09T04:14:25;6.70;99.90
33328;DHT22;19692;52.998;9.116;2023-01-09T04:16:51;6.60;99.90
33328;DHT22;19692;52.998;9.116;2023-01-09T04:19:17;6.70;99.90
33328;DHT22;19692;52.998;9.116;2023-01-09T04:21:42;6.70;99.90
33328;DHT22;19692;52.998;9.116;2023-01-09T04:24:08;6.70;99.90
33328;DHT22;19692;52.998;9.116;2023-01-09T04:26:34;6.70;99.90
33328;DHT22;19692;52.998;9.116;2023-01-09T04:28:59;6.70;99.90
33328;DHT22;19692;52.998;9.116;2023-01-09T04:31:25;6.70;99.90
33328;DHT22;19692;52.998;9.116;2023-01-09T04:33:51;6.70;99.90
33328;DHT22;19692;52.998;9.116;2023-01-09T04:36:17;6.70;99.90
33328;DHT22;19692;52.998;9.116;2023-01-09T04:38:43;6.60;99.90
33328;DHT22;19692;52.998;9.116;2023-01-09T04:41:09;6.60;99.90
33328;DHT22;19692;52.998;9.116;2023-01-09T04:43:35;6.70;99.90
33328;DHT22;19692;52.998;9.116;2023-01-09T04:46:01;6.60;99.90
33328;DHT22;19692;52.998;9.116;2023-01-09T04:48:27;6.70;99.90
33328;DHT22;19692;52.998;9.116;2023-01-09T04:50:53;6.70;99.90
33328;DHT22;19692;52.998;9.116;2023-01-09T04:53:27;6.70;99.90
33328;DHT22;19692;52.998;9.116;2023-01-09T04:55:53;6.70;99.90
33328;DHT22;19692;52.998;9.116;2023-01-09T04:58:19;6.70;99.90
33328;DHT22;19692;52.998;9.116;2023-01-09T05:00:44;6.70;99.90
33328;DHT22;19692;52.998;9.116;2023-01-09T05:03:10;6.60;99.90
33328;DHT22;19692;52.998;9.116;2023-01-09T05:05:36;6.70;99.90
33328;DHT22;19692;52.998;9.116;2023-01-09T05:08:02;6.70;99.90
33328;DHT22;19692;52.998;9.116;2023-01-09T05:10:27;6.70;99.90
33328;DHT22;19692;52.998;9.116;2023-01-09T05:12:53;6.70;99.90
33328;DHT22;19692;52.998;9.116;2023-01-09T05:15:19;6.70;99.90
33328;DHT22;19692;52.998;9.116;2023-01-09T05:17:45;6.70;99.90
33328;DHT22;19692;52.998;9.116;2023-01-09T05:20:10;6.70;99.90
33328;DHT22;19692;52.998;9.116;2023-01-09T05:22:36;6.70;99.90
33328;DHT22;19692;52.998;9.116;2023-01-09T05:25:02;6.60;99.90
33328;DHT22;19692;52.998;9.116;2023-01-09T05:27:28;6.60;99.90
33328;DHT22;19692;52.998;9.116;2023-01-09T05:29:54;6.60;99.90
33328;DHT22;19692;52.998;9.116;2023-01-09T05:32:23;6.60;99.90
33328;DHT22;19692;52.998;9.116;2023-01-09T05:34:48;6.60;99.90
33328;DHT22;19692;52.998;9.116;2023-01-09T05:37:14;6.50;99.90
33328;DHT22;19692;52.998;9.116;2023-01-09T05:39:40;6.50;99.90
33328;DHT22;19692;52.998;9.116;2023-01-09T05:42:06;6.50;99.90
33328;DHT22;19692;52.998;9.116;2023-01-09T05:44:31;6.50;99.90
33328;DHT22;19692;52.998;9.116;2023-01-09T05:46:57;6.50;99.90
33328;DHT22;19692;52.998;9.116;2023-01-09T05:49:23;6.50;99.90
33328;DHT22;19692;52.998;9.116;2023-01-09T05:51:49;6.40;99.90
33328;DHT22;19692;52.998;9.116;2023-01-09T05:54:14;6.40;99.90
33328;DHT22;19692;52.998;9.116;2023-01-09T05:56:40;6.30;99.90
33328;DHT22;19692;52.998;9.116;2023-01-09T05:59:07;6.40;99.90
33328;DHT22;19692;52.998;9.116;2023-01-09T06:01:35;6.30;99.90
33328;DHT22;19692;52.998;9.116;2023-01-09T06:04:00;6.30;99.90
33328;DHT22;19692;52.998;9.116;2023-01-09T06:06:26;6.30;99.90
33328;DHT22;19692;52.998;9.116;2023-01-09T06:08:52;6.30;99.90
33328;DHT22;19692;52.998;9.116;2023-01-09T06:11:18;6.40;99.90
33328;DHT22;19692;52.998;9.116;2023-01-09T06:13:43;6.30;99.90
33328;DHT22;19692;52.998;9.116;2023-01-09T06:16:09;6.30;99.90
33328;DHT22;19692;52.998;9.116;2023-01-09T06:18:35;6.30;99.90
33328;DHT22;19692;52.998;9.116;2023-01-09T06:21:01;6.30;99.90
33328;DHT22;19692;52.998;9.116;2023-01-09T06:23:26;6.30;99.90
33328;DHT22;19692;52.998;9.116;2023-01-09T06:25:52;6.20;99.90
33328;DHT22;19692;52.998;9.116;2023-01-09T06:28:18;6.10;99.90
33328;DHT22;19692;52.998;9.116;2023-01-09T06:30:44;6.10;99.90
33328;DHT22;19692;52.998;9.116;2023-01-09T06:33:09;6.00;99.90
33328;DHT22;19692;52.998;9.116;2023-01-09T06:35:35;6.00;99.90
33328;DHT22;19692;52.998;9.116;2023-01-09T06:38:01;5.90;99.90
33328;DHT22;19692;52.998;9.116;2023-01-09T06:40:27;5.90;99.90
33328;DHT22;19692;52.998;9.116;2023-01-09T06:42:53;5.80;99.90
33328;DHT22;19692;52.998;9.116;2023-01-09T06:45:19;5.70;99.90
33328;DHT22;19692;52.998;9.116;2023-01-09T06:47:44;5.70;99.90
33328;DHT22;19692;52.998;9.116;2023-01-09T06:50:11;5.60;99.90
33328;DHT22;19692;52.998;9.116;2023-01-09T06:52:37;5.60;99.90
33328;DHT22;19692;52.998;9.116;2023-01-09T06:55:04;5.50;99.90
33328;DHT22;19692;52.998;9.116;2023-01-09T06:57:30;5.50;99.90
33328;DHT22;19692;52.998;9.116;2023-01-09T06:59:56;5.50;99.90
33328;DHT22;19692;52.998;9.116;2023-01-09T07:02:22;5.50;99.90
33328;DHT22;19692;52.998;9.116;2023-01-09T07:04:48;5.50;99.90
33328;DHT22;19692;52.998;9.116;2023-01-09T07:07:14;5.60;99.90
33328;DHT22;19692;52.998;9.116;2023-01-09T07:09:40;5.60;99.90
33328;DHT22;19692;52.998;9.116;2023-01-09T07:12:06;5.50;99.90
33328;DHT22;19692;52.998;9.116;2023-01-09T07:14:31;5.50;99.90
33328;DHT22;19692;52.998;9.116;2023-01-09T07:16:58;5.50;99.90
33328;DHT22;19692;52.998;9.116;2023-01-09T07:19:24;5.50;99.90
33328;DHT22;19692;52.998;9.116;2023-01-09T07:21:49;5.50;99.90
33328;DHT22;19692;52.998;9.116;2023-01-09T07:24:15;5.40;99.90
33328;DHT22;19692;52.998;9.116;2023-01-09T07:26:41;5.40;99.90
33328;DHT22;19692;52.998;9.116;2023-01-09T07:29:07;5.40;99.90
33328;DHT22;19692;52.998;9.116;2023-01-09T07:31:32;5.30;99.90
33328;DHT22;19692;52.998;9.116;2023-01-09T07:33:58;5.30;99.90
33328;DHT22;19692;52.998;9.116;2023-01-09T07:36:24;5.30;99.90
33328;DHT22;19692;52.998;9.116;2023-01-09T07:38:49;5.20;99.90
33328;DHT22;19692;52.998;9.116;2023-01-09T07:41:15;5.30;99.90
33328;DHT22;19692;52.998;9.116;2023-01-09T07:43:43;5.20;99.90
33328;DHT22;19692;52.998;9.116;2023-01-09T07:46:09;5.20;99.90
33328;DHT22;19692;52.998;9.116;2023-01-09T07:48:35;5.10;99.90
33328;DHT22;19692;52.998;9.116;2023-01-09T07:51:01;5.10;99.90
33328;DHT22;19692;52.998;9.116;2023-01-09T07:53:26;5.10;99.90
33328;DHT22;19692;52.998;9.116;2023-01-09T07:55:52;5.10;99.90
33328;DHT22;19692;52.998;9.116;2023-01-09T07:58:18;5.10;99.90
33328;DHT22;19692;52.998;9.116;2023-01-09T08:00:44;5.00;99.90
33328;DHT22;19692;52.998;9.116;2023-01-09T08:03:09;5.00;99.90
33328;DHT22;19692;52.998;9.116;2023-01-09T08:05:35;5.00;99.90
33328;DHT22;19692;52.998;9.116;2023-01-09T08:08:01;5.10;99.90
33328;DHT22;19692;52.998;9.116;2023-01-09T08:10:27;5.10;99.90
33328;DHT22;19692;52.998;9.116;2023-01-09T08:12:53;5.10;99.90
33328;DHT22;19692;52.998;9.116;2023-01-09T08:15:19;5.10;99.90
33328;DHT22;19692;52.998;9.116;2023-01-09T08:17:45;5.10;99.90
33328;DHT22;19692;52.998;9.116;2023-01-09T08:20:13;5.20;99.90
33328;DHT22;19692;52.998;9.116;2023-01-09T08:22:40;5.30;99.90
33328;DHT22;19692;52.998;9.116;2023-01-09T08:25:07;5.30;99.90
33328;DHT22;19692;52.998;9.116;2023-01-09T08:27:33;5.30;99.90
33328;DHT22;19692;52.998;9.116;2023-01-09T08:29:59;5.40;99.90
33328;DHT22;19692;52.998;9.116;2023-01-09T08:32:25;5.40;99.90
33328;DHT22;19692;52.998;9.116;2023-01-09T08:34:54;5.50;99.90
33328;DHT22;19692;52.998;9.116;2023-01-09T08:37:20;5.60;99.90
33328;DHT22;19692;52.998;9.116;2023-01-09T08:39:45;5.60;99.90
33328;DHT22;19692;52.998;9.116;2023-01-09T08:42:11;5.60;99.90
33328;DHT22;19692;52.998;9.116;2023-01-09T08:44:55;5.70;99.90
33328;DHT22;19692;52.998;9.116;2023-01-09T08:47:39;5.70;99.90
33328;DHT22;19692;52.998;9.116;2023-01-09T08:50:05;5.70;99.90
33328;DHT22;19692;52.998;9.116;2023-01-09T08:52:31;5.80;99.90
33328;DHT22;19692;52.998;9.116;2023-01-09T08:54:57;5.80;99.90
33328;DHT22;19692;52.998;9.116;2023-01-09T08:57:23;5.80;99.90
33328;DHT22;19692;52.998;9.116;2023-01-09T08:59:49;5.80;99.90
33328;DHT22;19692;52.998;9.116;2023-01-09T09:02:15;5.80;99.90
33328;DHT22;19692;52.998;9.116;2023-01-09T09:04:41;5.80;99.90
33328;DHT22;19692;52.998;9.116;2023-01-09T09:07:06;5.90;99.90
33328;DHT22;19692;52.998;9.116;2023-01-09T09:09:32;5.80;99.90
33328;DHT22;19692;52.998;9.116;2023-01-09T09:11:58;5.80;99.90
33328;DHT22;19692;52.998;9.116;2023-01-09T09:14:26;5.80;99.90
33328;DHT22;19692;52.998;9.116;2023-01-09T09:17:10;5.80;99.90
33328;DHT22;19692;52.998;9.116;2023-01-09T09:19:35;5.90;99.90
33328;DHT22;19692;52.998;9.116;2023-01-09T09:22:03;5.90;99.90
33328;DHT22;19692;52.998;9.116;2023-01-09T09:24:29;5.90;99.90
33328;DHT22;19692;52.998;9.116;2023-01-09T09:26:55;5.90;99.90
33328;DHT22;19692;52.998;9.116;2023-01-09T09:29:21;6.00;99.90
33328;DHT22;19692;52.998;9.116;2023-01-09T09:31:46;6.00;99.90
33328;DHT22;19692;52.998;9.116;2023-01-09T09:34:12;6.00;99.90
33328;DHT22;19692;52.998;9.116;2023-01-09T09:36:38;6.10;99.90
33328;DHT22;19692;52.998;9.116;2023-01-09T09:39:04;6.10;99.90
33328;DHT22;19692;52.998;9.116;2023-01-09T09:42:04;6.20;99.90
33328;DHT22;19692;52.998;9.116;2023-01-09T09:53:09;6.40;99.90
33328;DHT22;19692;52.998;9.116;2023-01-09T09:55:45;6.40;99.90
33328;DHT22;19692;52.998;9.116;2023-01-09T10:00:42;6.50;99.90
33328;DHT22;19692;52.998;9.116;2023-01-09T10:03:30;6.40;99.90
33328;DHT22;19692;52.998;9.116;2023-01-09T10:06:03;6.50;99.90
33328;DHT22;19692;52.998;9.116;2023-01-09T10:09:04;6.60;99.90
33328;DHT22;19692;52.998;9.116;2023-01-09T10:14:49;6.90;99.90
33328;DHT22;19692;52.998;9.116;2023-01-09T10:18:11;6.80;99.90
33328;DHT22;19692;52.998;9.116;2023-01-09T10:23:17;6.80;99.90
33328;DHT22;19692;52.998;9.116;2023-01-09T10:25:51;6.80;99.90
33328;DHT22;19692;52.998;9.116;2023-01-09T10:31:23;6.80;99.90
33328;DHT22;19692;52.998;9.116;2023-01-09T10:42:34;6.80;99.90
33328;DHT22;19692;52.998;9.116;2023-01-09T10:47:54;6.80;99.90
33328;DHT22;19692;52.998;9.116;2023-01-09T10:50:33;6.80;99.90
33328;DHT22;19692;52.998;9.116;2023-01-09T10:53:04;6.80;99.90
33328;DHT22;19692;52.998;9.116;2023-01-09T10:55:44;7.00;99.90
33328;DHT22;19692;52.998;9.116;2023-01-09T10:58:16;7.00;99.90
33328;DHT22;19692;52.998;9.116;2023-01-09T11:00:44;7.20;99.90
33328;DHT22;19692;52.998;9.116;2023-01-09T11:03:16;7.20;99.90
33328;DHT22;19692;52.998;9.116;2023-01-09T11:05:51;7.20;99.90
33328;DHT22;19692;52.998;9.116;2023-01-09T11:11:37;7.30;99.90
33328;DHT22;19692;52.998;9.116;2023-01-09T11:16:56;8.00;99.90
33328;DHT22;19692;52.998;9.116;2023-01-09T11:19:24;7.80;99.90
33328;DHT22;19692;52.998;9.116;2023-01-09T11:22:06;7.70;99.90
33328;DHT22;19692;52.998;9.116;2023-01-09T11:24:33;7.60;99.90
33328;DHT22;19692;52.998;9.116;2023-01-09T11:27:21;7.60;99.90
33328;DHT22;19692;52.998;9.116;2023-01-09T11:30:14;7.60;99.90
33328;DHT22;19692;52.998;9.116;2023-01-09T11:32:42;7.70;99.90
33328;DHT22;19692;52.998;9.116;2023-01-09T11:35:28;7.70;99.90
33328;DHT22;19692;52.998;9.116;2023-01-09T11:38:14;7.70;99.90
33328;DHT22;19692;52.998;9.116;2023-01-09T11:40:59;7.70;99.90
33328;DHT22;19692;52.998;9.116;2023-01-09T11:43:27;7.70;99.90
33328;DHT22;19692;52.998;9.116;2023-01-09T11:45:59;7.60;99.90
33328;DHT22;19692;52.998;9.116;2023-01-09T11:48:41;7.70;99.90
33328;DHT22;19692;52.998;9.116;2023-01-09T11:51:24;7.60;99.90
33328;DHT22;19692;52.998;9.116;2023-01-09T11:56:40;7.50;99.90
33328;DHT22;19692;52.998;9.116;2023-01-09T11:59:14;7.60;99.90
33328;DHT22;19692;52.998;9.116;2023-01-09T12:02:16;7.60;99.90
33328;DHT22;19692;52.998;9.116;2023-01-09T12:10:58;7.50;99.90
33328;DHT22;19692;52.998;9.116;2023-01-09T12:22:43;7.30;99.90
33328;DHT22;19692;52.998;9.116;2023-01-09T12:33:58;7.10;99.90
33328;DHT22;19692;52.998;9.116;2023-01-09T12:42:17;7.10;99.90
33328;DHT22;19692;52.998;9.116;2023-01-09T12:47:46;7.10;99.90
33328;DHT22;19692;52.998;9.116;2023-01-09T12:53:04;7.00;99.90
33328;DHT22;19692;52.998;9.116;2023-01-09T12:55:39;6.90;99.90
33328;DHT22;19692;52.998;9.116;2023-01-09T12:58:19;7.00;99.90
33328;DHT22;19692;52.998;9.116;2023-01-09T13:00:57;7.00;99.90
33328;DHT22;19692;52.998;9.116;2023-01-09T13:03:43;6.80;99.90
33328;DHT22;19692;52.998;9.116;2023-01-09T13:06:15;6.80;99.90
33328;DHT22;19692;52.998;9.116;2023-01-09T13:08:49;6.80;99.90
33328;DHT22;19692;52.998;9.116;2023-01-09T13:11:30;6.80;99.90
33328;DHT22;19692;52.998;9.116;2023-01-09T13:14:01;6.90;99.90
33328;DHT22;19692;52.998;9.116;2023-01-09T13:16:41;6.80;99.90
33328;DHT22;19692;52.998;9.116;2023-01-09T13:19:17;6.80;99.90
33328;DHT22;19692;52.998;9.116;2023-01-09T13:21:47;6.80;99.90
33328;DHT22;19692;52.998;9.116;2023-01-09T13:24:46;6.70;99.90
33328;DHT22;19692;52.998;9.116;2023-01-09T13:27:20;6.70;99.90
33328;DHT22;19692;52.998;9.116;2023-01-09T13:29:51;6.70;99.90
33328;DHT22;19692;52.998;9.116;2023-01-09T13:34:51;6.70;99.90
33328;DHT22;19692;52.998;9.116;2023-01-09T13:37:26;6.70;99.90
33328;DHT22;19692;52.998;9.116;2023-01-09T13:40:46;6.70;99.90
33328;DHT22;19692;52.998;9.116;2023-01-09T13:43:01;6.70;99.90
33328;DHT22;19692;52.998;9.116;2023-01-09T13:45:31;6.70;99.90
33328;DHT22;19692;52.998;9.116;2023-01-09T13:50:40;6.70;99.90
33328;DHT22;19692;52.998;9.116;2023-01-09T13:58:25;6.80;99.90
33328;DHT22;19692;52.998;9.116;2023-01-09T14:00:58;6.80;99.90
33328;DHT22;19692;52.998;9.116;2023-01-09T14:03:31;6.80;99.90
33328;DHT22;19692;52.998;9.116;2023-01-09T14:06:04;6.80;99.90
33328;DHT22;19692;52.998;9.116;2023-01-09T14:08:36;6.80;99.90
33328;DHT22;19692;52.998;9.116;2023-01-09T14:11:03;6.80;99.90
33328;DHT22;19692;52.998;9.116;2023-01-09T14:13:37;6.80;99.90
33328;DHT22;19692;52.998;9.116;2023-01-09T14:18:47;6.90;99.90
33328;DHT22;19692;52.998;9.116;2023-01-09T14:21:15;6.90;99.90
33328;DHT22;19692;52.998;9.116;2023-01-09T14:24:00;6.90;99.90
33328;DHT22;19692;52.998;9.116;2023-01-09T14:26:46;6.90;99.90
33328;DHT22;19692;52.998;9.116;2023-01-09T14:37:41;6.90;99.90
33328;DHT22;19692;52.998;9.116;2023-01-09T14:40:21;6.90;99.90
33328;DHT22;19692;52.998;9.116;2023-01-09T14:42:51;6.90;99.90
33328;DHT22;19692;52.998;9.116;2023-01-09T14:45:21;6.90;99.90
33328;DHT22;19692;52.998;9.116;2023-01-09T14:47:55;6.90;99.90
33328;DHT22;19692;52.998;9.116;2023-01-09T14:50:31;6.90;99.90
33328;DHT22;19692;52.998;9.116;2023-01-09T14:53:12;6.90;99.90
33328;DHT22;19692;52.998;9.116;2023-01-09T14:55:58;6.90;99.90
33328;DHT22;19692;52.998;9.116;2023-01-09T14:58:30;6.80;99.90
33328;DHT22;19692;52.998;9.116;2023-01-09T15:03:56;6.80;99.90
33328;DHT22;19692;52.998;9.116;2023-01-09T15:06:29;6.80;99.90
33328;DHT22;19692;52.998;9.116;2023-01-09T15:09:05;6.80;99.90
33328;DHT22;19692;52.998;9.116;2023-01-09T15:11:33;6.80;99.90
33328;DHT22;19692;52.998;9.116;2023-01-09T15:14:03;6.80;99.90
33328;DHT22;19692;52.998;9.116;2023-01-09T15:16:30;6.80;99.90
33328;DHT22;19692;52.998;9.116;2023-01-09T15:18:59;6.80;99.90
33328;DHT22;19692;52.998;9.116;2023-01-09T15:21:29;6.70;99.90
33328;DHT22;19692;52.998;9.116;2023-01-09T15:24:11;6.80;99.90
33328;DHT22;19692;52.998;9.116;2023-01-09T15:26:37;6.70;99.90
33328;DHT22;19692;52.998;9.116;2023-01-09T15:29:21;6.70;99.90
33328;DHT22;19692;52.998;9.116;2023-01-09T15:31:50;6.70;99.90
33328;DHT22;19692;52.998;9.116;2023-01-09T15:34:21;6.70;99.90
33328;DHT22;19692;52.998;9.116;2023-01-09T15:36:49;6.70;99.90
33328;DHT22;19692;52.998;9.116;2023-01-09T15:39:24;6.70;99.90
33328;DHT22;19692;52.998;9.116;2023-01-09T15:41:52;6.70;99.90
33328;DHT22;19692;52.998;9.116;2023-01-09T15:44:38;6.70;99.90
33328;DHT22;19692;52.998;9.116;2023-01-09T15:47:09;6.70;99.90
33328;DHT22;19692;52.998;9.116;2023-01-09T15:49:38;6.70;99.90
33328;DHT22;19692;52.998;9.116;2023-01-09T15:52:04;6.80;99.90
33328;DHT22;19692;52.998;9.116;2023-01-09T15:54:32;6.70;99.90
33328;DHT22;19692;52.998;9.116;2023-01-09T15:59:48;6.60;99.90
33328;DHT22;19692;52.998;9.116;2023-01-09T16:02:15;6.60;99.90
33328;DHT22;19692;52.998;9.116;2023-01-09T16:05:07;6.60;99.90
33328;DHT22;19692;52.998;9.116;2023-01-09T16:07:43;6.60;99.90
33328;DHT22;19692;52.998;9.116;2023-01-09T16:10:25;6.60;99.90
33328;DHT22;19692;52.998;9.116;2023-01-09T16:12:55;6.50;99.90
33328;DHT22;19692;52.998;9.116;2023-01-09T16:15:21;6.60;99.90
33328;DHT22;19692;52.998;9.116;2023-01-09T16:20:41;6.60;99.90
33328;DHT22;19692;52.998;9.116;2023-01-09T16:23:39;6.50;99.90
33328;DHT22;19692;52.998;9.116;2023-01-09T16:26:20;6.60;99.90
33328;DHT22;19692;52.998;9.116;2023-01-09T16:28:48;6.60;99.90
33328;DHT22;19692;52.998;9.116;2023-01-09T16:31:19;6.50;99.90
33328;DHT22;19692;52.998;9.116;2023-01-09T16:34:04;6.60;99.90
33328;DHT22;19692;52.998;9.116;2023-01-09T16:36:33;6.60;99.90
33328;DHT22;19692;52.998;9.116;2023-01-09T16:39:00;6.60;99.90
33328;DHT22;19692;52.998;9.116;2023-01-09T16:41:28;6.60;99.90
33328;DHT22;19692;52.998;9.116;2023-01-09T16:44:13;6.50;99.90
33328;DHT22;19692;52.998;9.116;2023-01-09T16:46:40;6.50;99.90
33328;DHT22;19692;52.998;9.116;2023-01-09T16:49:21;6.50;99.90
33328;DHT22;19692;52.998;9.116;2023-01-09T16:51:49;6.50;99.90
33328;DHT22;19692;52.998;9.116;2023-01-09T16:54:15;6.50;99.90
33328;DHT22;19692;52.998;9.116;2023-01-09T16:56:43;6.50;99.90
33328;DHT22;19692;52.998;9.116;2023-01-09T16:59:12;6.50;99.90
33328;DHT22;19692;52.998;9.116;2023-01-09T17:01:39;6.50;99.90
33328;DHT22;19692;52.998;9.116;2023-01-09T17:04:13;6.60;99.90
33328;DHT22;19692;52.998;9.116;2023-01-09T17:06:40;6.50;99.90
33328;DHT22;19692;52.998;9.116;2023-01-09T17:09:11;6.50;99.90
33328;DHT22;19692;52.998;9.116;2023-01-09T17:11:38;6.50;99.90
33328;DHT22;19692;52.998;9.116;2023-01-09T17:14:05;6.50;99.90
33328;DHT22;19692;52.998;9.116;2023-01-09T17:16:33;6.50;99.90
33328;DHT22;19692;52.998;9.116;2023-01-09T17:19:03;6.50;99.90
33328;DHT22;19692;52.998;9.116;2023-01-09T17:21:29;6.50;99.90
33328;DHT22;19692;52.998;9.116;2023-01-09T17:23:57;6.50;99.90
33328;DHT22;19692;52.998;9.116;2023-01-09T17:26:47;6.50;99.90
33328;DHT22;19692;52.998;9.116;2023-01-09T17:29:32;6.50;99.90
33328;DHT22;19692;52.998;9.116;2023-01-09T17:31:59;6.50;99.90
33328;DHT22;19692;52.998;9.116;2023-01-09T17:34:25;6.50;99.90
33328;DHT22;19692;52.998;9.116;2023-01-09T17:36:51;6.50;99.90
33328;DHT22;19692;52.998;9.116;2023-01-09T17:39:20;6.50;99.90
33328;DHT22;19692;52.998;9.116;2023-01-09T17:41:46;6.50;99.90
33328;DHT22;19692;52.998;9.116;2023-01-09T17:44:12;6.50;99.90
33328;DHT22;19692;52.998;9.116;2023-01-09T17:46:40;6.50;99.90
33328;DHT22;19692;52.998;9.116;2023-01-09T17:49:17;6.50;99.90
33328;DHT22;19692;52.998;9.116;2023-01-09T17:51:44;6.50;99.90
33328;DHT22;19692;52.998;9.116;2023-01-09T17:54:10;6.50;99.90
33328;DHT22;19692;52.998;9.116;2023-01-09T17:56:37;6.50;99.90
33328;DHT22;19692;52.998;9.116;2023-01-09T17:59:05;6.50;99.90
33328;DHT22;19692;52.998;9.116;2023-01-09T18:01:33;6.50;99.90
33328;DHT22;19692;52.998;9.116;2023-01-09T18:03:59;6.50;99.90
33328;DHT22;19692;52.998;9.116;2023-01-09T18:06:25;6.50;99.90